Time;durP1;ratioP1;P1;durP2;ratioP2;P2;SDS_P1;SDS_P2;PMS_P1;PMS_P2;Temp;Humidity;BMP_temperature;BMP_pressure;BME280_temperature;BME280_humidity;BME280_pressure;Samples;Min_cycle;Max_cycle;Signal;HPM_P1;HPM_P2
2021/01/20 00:00:41;;;;;;;;;;;23.70;35.60;;;;;;1626230;72;726;-64
2021/01/20 00:02:43;;;;;;;;;;;23.70;35.70;;;;;;1622501;72;785;-62
2021/01/20 00:04:45;;;;;;;;;;;23.80;35.70;;;;;;1627450;72;774;-64
2021/01/20 00:06:48;;;;;;;;;;;23.70;35.70;;;;;;1626834;72;1158;-64
2021/01/20 00:08:49;;;;;;;;;;;23.70;35.80;;;;;;1622741;72;1931;-62
2021/01/20 00:10:51;;;;;;;;;;;23.70;35.80;;;;;;1626866;72;624;-66
2021/01/20 00:12:53;;;;;;;;;;;23.70;36.10;;;;;;1627867;73;675;-67
2021/01/20 00:14:55;;;;;;;;;;;23.60;36.00;;;;;;1625347;72;733;-67
2021/01/20 00:16:57;;;;;;;;;;;23.60;35.90;;;;;;1627261;72;1144;-67
2021/01/20 00:18:59;;;;;;;;;;;23.70;35.90;;;;;;1627775;72;722;-67
2021/01/20 00:21:01;;;;;;;;;;;23.70;35.80;;;;;;1625142;72;774;-67
2021/01/20 00:23:03;;;;;;;;;;;23.70;35.80;;;;;;1624931;72;700;-63
2021/01/20 00:25:05;;;;;;;;;;;23.60;35.70;;;;;;1626959;72;681;-65
2021/01/20 00:27:07;;;;;;;;;;;23.70;36.10;;;;;;1627040;73;1116;-63
2021/01/20 00:29:09;;;;;;;;;;;23.60;35.90;;;;;;1626150;72;1941;-63
2021/01/20 00:31:11;;;;;;;;;;;23.60;36.00;;;;;;1626523;72;755;-63
2021/01/20 00:33:13;;;;;;;;;;;23.60;36.00;;;;;;1626002;72;692;-63
2021/01/20 00:35:15;;;;;;;;;;;23.70;36.20;;;;;;1627585;72;676;-63
2021/01/20 00:37:17;;;;;;;;;;;23.60;36.00;;;;;;1625820;72;1250;-63
2021/01/20 00:39:19;;;;;;;;;;;23.60;36.00;;;;;;1627884;72;704;-67
2021/01/20 00:41:21;;;;;;;;;;;23.60;36.00;;;;;;1627663;72;746;-66
2021/01/20 00:43:22;;;;;;;;;;;23.70;36.10;;;;;;1622458;72;764;-67
2021/01/20 00:45:24;;;;;;;;;;;23.60;35.90;;;;;;1623515;72;711;-66
2021/01/20 00:47:26;;;;;;;;;;;23.60;35.90;;;;;;1626548;72;1068;-64
2021/01/20 00:49:28;;;;;;;;;;;23.70;36.00;;;;;;1627497;72;1943;-67
2021/01/20 00:51:30;;;;;;;;;;;23.60;35.90;;;;;;1625746;72;730;-66
2021/01/20 00:53:32;;;;;;;;;;;23.60;35.90;;;;;;1625726;73;758;-64
2021/01/20 00:55:34;;;;;;;;;;;23.60;35.80;;;;;;1628440;72;709;-64
2021/01/20 00:57:35;;;;;;;;;;;23.60;35.80;;;;;;1624740;72;1135;-62
2021/01/20 00:59:37;;;;;;;;;;;23.60;35.80;;;;;;1622382;72;789;-63
2021/01/20 01:01:39;;;;;;;;;;;23.60;35.80;;;;;;1624388;72;779;-64
2021/01/20 01:03:41;;;;;;;;;;;23.60;35.80;;;;;;1627601;72;701;-64
2021/01/20 01:05:43;;;;;;;;;;;23.60;35.80;;;;;;1627594;72;805;-63
2021/01/20 01:07:45;;;;;;;;;;;23.60;35.80;;;;;;1623677;72;1266;-62
2021/01/20 01:09:47;;;;;;;;;;;23.60;35.80;;;;;;1617090;72;1968;-63
2021/01/20 01:11:48;;;;;;;;;;;23.60;35.80;;;;;;1626728;72;811;-63
2021/01/20 01:13:50;;;;;;;;;;;23.70;35.90;;;;;;1628049;72;669;-62
2021/01/20 01:15:52;;;;;;;;;;;23.50;35.70;;;;;;1624440;72;634;-67
2021/01/20 01:17:54;;;;;;;;;;;23.60;35.70;;;;;;1618926;72;1142;-66
2021/01/20 01:19:56;;;;;;;;;;;23.60;35.80;;;;;;1627704;72;697;-63
2021/01/20 01:21:58;;;;;;;;;;;23.60;35.70;;;;;;1634904;72;666;-63
2021/01/20 01:24:00;;;;;;;;;;;23.60;35.80;;;;;;1642113;72;709;-64
2021/01/20 01:26:01;;;;;;;;;;;23.60;35.70;;;;;;1628238;72;732;-65
2021/01/20 01:28:05;;;;;;;;;;;23.60;35.70;;;;;;1624137;73;1095;-65
2021/01/20 01:30:07;;;;;;;;;;;23.60;35.70;;;;;;1605944;73;1929;-63
2021/01/20 01:32:09;;;;;;;;;;;23.60;35.70;;;;;;1627294;72;713;-63
2021/01/20 01:34:11;;;;;;;;;;;23.60;35.70;;;;;;1620103;73;721;-63
2021/01/20 01:36:13;;;;;;;;;;;23.60;35.70;;;;;;1620601;73;737;-62
2021/01/20 01:38:15;;;;;;;;;;;23.50;35.60;;;;;;1594883;73;1160;-62
2021/01/20 01:40:17;;;;;;;;;;;23.50;35.60;;;;;;1612532;72;691;-63
2021/01/20 01:42:20;;;;;;;;;;;23.60;35.60;;;;;;1631890;72;688;-63
2021/01/20 01:44:22;;;;;;;;;;;23.50;35.60;;;;;;1614607;72;1254;-64
2021/01/20 01:46:24;;;;;;;;;;;23.50;35.60;;;;;;1614319;72;744;-64
2021/01/20 01:48:26;;;;;;;;;;;23.50;35.60;;;;;;1622924;72;1143;-65
2021/01/20 01:50:28;;;;;;;;;;;23.60;35.70;;;;;;1629597;72;1938;-65
2021/01/20 01:52:30;;;;;;;;;;;23.60;35.60;;;;;;1614331;72;806;-66
2021/01/20 01:54:32;;;;;;;;;;;23.60;35.70;;;;;;1628131;72;757;-63
2021/01/20 01:56:34;;;;;;;;;;;23.60;35.70;;;;;;1598534;73;751;-61
2021/01/20 01:58:36;;;;;;;;;;;23.60;35.70;;;;;;1605600;73;721;-62
2021/01/20 02:00:37;;;;;;;;;;;23.50;35.60;;;;;;1602819;73;796;-63
2021/01/20 02:02:39;;;;;;;;;;;23.50;35.60;;;;;;1595399;73;782;-63
2021/01/20 02:04:41;;;;;;;;;;;23.50;35.50;;;;;;1622629;72;720;-63
2021/01/20 02:06:43;;;;;;;;;;;23.50;35.60;;;;;;1625014;72;1159;-64
2021/01/20 02:08:45;;;;;;;;;;;23.50;35.50;;;;;;1625081;72;823;-63
2021/01/20 02:10:47;;;;;;;;;;;23.50;35.60;;;;;;1621286;73;1917;-63
2021/01/20 02:12:57;;;;;;;;;;;23.50;35.60;;;;;;1616880;73;768;-64
2021/01/20 02:15:03;;;;;;;;;;;23.50;35.60;;;;;;1623873;72;705;-64
2021/01/20 02:17:09;;;;;;;;;;;23.50;35.60;;;;;;1606772;72;1494;-63
2021/01/20 02:19:11;;;;;;;;;;;23.50;35.60;;;;;;1627098;72;1725;-64
2021/01/20 02:21:18;;;;;;;;;;;23.50;35.60;;;;;;1620153;72;672;-63
2021/01/20 02:23:20;;;;;;;;;;;23.50;35.60;;;;;;1593736;72;1443;-63
2021/01/20 02:25:29;;;;;;;;;;;23.50;35.50;;;;;;1620104;72;650;-63
2021/01/20 02:27:32;;;;;;;;;;;23.50;35.50;;;;;;1626671;72;1810;-65
2021/01/20 02:29:45;;;;;;;;;;;23.50;35.60;;;;;;1626534;72;1939;-67
2021/01/20 02:31:47;;;;;;;;;;;23.40;35.50;;;;;;1624420;72;741;-67
2021/01/20 02:33:49;;;;;;;;;;;23.50;35.50;;;;;;1627327;72;732;-63
2021/01/20 02:35:53;;;;;;;;;;;23.40;35.50;;;;;;1626468;72;739;-63
2021/01/20 02:37:54;;;;;;;;;;;23.40;35.70;;;;;;1626305;73;1691;-64
2021/01/20 02:39:56;;;;;;;;;;;23.40;35.70;;;;;;1627894;72;709;-65
2021/01/20 02:42:03;;;;;;;;;;;23.40;35.70;;;;;;1622968;72;730;-65
2021/01/20 02:44:05;;;;;;;;;;;23.40;35.70;;;;;;1613240;72;2334;-65
2021/01/20 02:46:07;;;;;;;;;;;23.40;35.80;;;;;;1627250;72;751;-63
2021/01/20 02:48:09;;;;;;;;;;;23.40;35.90;;;;;;1627658;72;1122;-64
2021/01/20 02:50:11;;;;;;;;;;;23.40;36.00;;;;;;1627237;72;1924;-64
2021/01/20 02:52:15;;;;;;;;;;;23.40;36.00;;;;;;1595851;73;814;-65
2021/01/20 02:54:17;;;;;;;;;;;23.40;36.00;;;;;;1626890;72;708;-65
2021/01/20 02:56:18;;;;;;;;;;;23.50;36.20;;;;;;1628168;72;665;-65
2021/01/20 02:58:24;;;;;;;;;;;23.40;36.10;;;;;;1627511;72;1127;-64
2021/01/20 03:00:26;;;;;;;;;;;23.40;36.00;;;;;;1625486;72;716;-63
2021/01/20 03:02:28;;;;;;;;;;;23.40;36.20;;;;;;1625443;72;782;-62
2021/01/20 03:04:30;;;;;;;;;;;23.40;36.30;;;;;;1627991;72;751;-62
2021/01/20 03:06:32;;;;;;;;;;;23.40;36.20;;;;;;1624301;72;739;-61
2021/01/20 03:08:34;;;;;;;;;;;23.40;36.20;;;;;;1624651;72;1131;-60
2021/01/20 03:10:36;;;;;;;;;;;23.40;36.30;;;;;;1624867;73;1935;-63
2021/01/20 03:12:38;;;;;;;;;;;23.40;36.30;;;;;;1619831;72;679;-62
2021/01/20 03:14:40;;;;;;;;;;;23.40;36.40;;;;;;1627914;72;722;-60
2021/01/20 03:16:41;;;;;;;;;;;23.40;36.50;;;;;;1627465;72;1185;-61
2021/01/20 03:18:43;;;;;;;;;;;23.40;36.50;;;;;;1627930;72;722;-62
2021/01/20 03:20:45;;;;;;;;;;;23.30;36.50;;;;;;1623504;72;685;-62
2021/01/20 03:22:47;;;;;;;;;;;23.30;36.40;;;;;;1624076;72;1045;-61
2021/01/20 03:24:49;;;;;;;;;;;23.40;36.40;;;;;;1623303;72;624;-60
2021/01/20 03:26:51;;;;;;;;;;;23.40;36.40;;;;;;1626316;72;1138;-60
2021/01/20 03:28:53;;;;;;;;;;;23.40;36.40;;;;;;1628006;72;777;-61
2021/01/20 03:30:54;;;;;;;;;;;23.40;36.40;;;;;;1624177;72;1916;-62
2021/01/20 03:32:56;;;;;;;;;;;23.40;36.50;;;;;;1627829;72;726;-62
2021/01/20 03:34:58;;;;;;;;;;;23.50;36.60;;;;;;1627975;73;749;-64
2021/01/20 03:37:00;;;;;;;;;;;23.40;36.60;;;;;;1627123;72;1175;-63
2021/01/20 03:39:02;;;;;;;;;;;23.40;36.50;;;;;;1623402;72;734;-64
2021/01/20 03:41:04;;;;;;;;;;;23.40;36.50;;;;;;1625220;72;702;-63
2021/01/20 03:43:06;;;;;;;;;;;23.40;36.50;;;;;;1627791;72;723;-63
2021/01/20 03:45:08;;;;;;;;;;;23.40;36.50;;;;;;1627215;72;751;-61
2021/01/20 03:47:10;;;;;;;;;;;23.40;36.50;;;;;;1625606;72;1129;-62
2021/01/20 03:49:12;;;;;;;;;;;23.50;36.50;;;;;;1627567;72;801;-62
2021/01/20 03:51:14;;;;;;;;;;;23.40;36.50;;;;;;1627325;73;1957;-62
2021/01/20 03:53:16;;;;;;;;;;;23.40;36.50;;;;;;1627794;73;715;-61
2021/01/20 03:55:18;;;;;;;;;;;23.40;36.50;;;;;;1622754;72;782;-61
2021/01/20 03:57:20;;;;;;;;;;;23.50;36.60;;;;;;1626478;72;1060;-62
2021/01/20 03:59:21;;;;;;;;;;;23.40;36.50;;;;;;1623690;72;790;-62
2021/01/20 04:01:23;;;;;;;;;;;23.50;36.60;;;;;;1627729;72;748;-62
2021/01/20 04:03:25;;;;;;;;;;;23.40;36.40;;;;;;1627888;72;800;-62
2021/01/20 04:05:27;;;;;;;;;;;23.50;36.60;;;;;;1628010;72;769;-62
2021/01/20 04:07:29;;;;;;;;;;;23.40;36.50;;;;;;1627001;72;1141;-61
2021/01/20 04:09:31;;;;;;;;;;;23.40;36.40;;;;;;1627679;72;811;-62
2021/01/20 04:11:33;;;;;;;;;;;23.40;36.40;;;;;;1627924;72;1943;-62
2021/01/20 04:13:35;;;;;;;;;;;23.50;36.50;;;;;;1627708;72;805;-62
2021/01/20 04:15:37;;;;;;;;;;;23.50;36.50;;;;;;1619990;73;727;-61
2021/01/20 04:17:39;;;;;;;;;;;23.50;36.50;;;;;;1626836;72;1133;-62
2021/01/20 04:19:40;;;;;;;;;;;23.40;36.40;;;;;;1626711;72;702;-63
2021/01/20 04:21:42;;;;;;;;;;;23.30;36.40;;;;;;1627679;72;714;-62
2021/01/20 04:23:44;;;;;;;;;;;23.40;36.50;;;;;;1627961;72;679;-62
2021/01/20 04:25:46;;;;;;;;;;;23.30;36.50;;;;;;1618200;72;713;-62
2021/01/20 04:27:48;;;;;;;;;;;23.30;36.60;;;;;;1627350;72;1127;-62
2021/01/20 04:29:50;;;;;;;;;;;23.20;36.60;;;;;;1620594;72;799;-62
2021/01/20 04:31:52;;;;;;;;;;;23.20;36.50;;;;;;1627815;72;1978;-61
2021/01/20 04:36:21;;;;;;;;;;;23.20;36.90;;;;;;1544223;75;1531;-62
2021/01/20 04:38:22;;;;;;;;;;;23.20;36.70;;;;;;1508119;77;1179;-63
2021/01/20 04:40:25;;;;;;;;;;;23.20;36.70;;;;;;1531986;76;720;-63
2021/01/20 04:42:26;;;;;;;;;;;23.20;36.60;;;;;;1534000;77;791;-62
2021/01/20 04:44:28;;;;;;;;;;;23.20;36.50;;;;;;1529085;77;793;-63
2021/01/20 04:46:30;;;;;;;;;;;23.30;36.50;;;;;;1533141;77;741;-62
2021/01/20 04:48:32;;;;;;;;;;;23.30;36.50;;;;;;1533865;76;1123;-62
2021/01/20 04:50:35;;;;;;;;;;;23.40;36.30;;;;;;1533705;77;1931;-62
2021/01/20 04:52:36;;;;;;;;;;;23.40;36.30;;;;;;1533538;77;769;-62
2021/01/20 04:54:38;;;;;;;;;;;23.30;36.30;;;;;;1537545;77;705;-62
2021/01/20 04:56:40;;;;;;;;;;;23.40;36.30;;;;;;1538055;76;1181;-63
2021/01/20 04:58:42;;;;;;;;;;;23.40;36.20;;;;;;1537454;76;831;-63
2021/01/20 05:00:44;;;;;;;;;;;23.40;36.20;;;;;;1534044;77;707;-63
2021/01/20 05:02:46;;;;;;;;;;;23.40;36.10;;;;;;1526520;77;770;-62
2021/01/20 05:04:48;;;;;;;;;;;23.30;36.00;;;;;;1530662;76;626;-62
2021/01/20 05:06:50;;;;;;;;;;;23.40;36.20;;;;;;1537541;76;1136;-63
2021/01/20 05:08:51;;;;;;;;;;;23.50;36.30;;;;;;1529858;77;761;-62
2021/01/20 05:10:53;;;;;;;;;;;23.50;36.30;;;;;;1526573;77;1933;-62
2021/01/20 05:12:55;;;;;;;;;;;23.50;36.20;;;;;;1530324;77;702;-61
2021/01/20 05:14:57;;;;;;;;;;;23.50;36.20;;;;;;1531932;77;734;-60
2021/01/20 05:17:08;;;;;;;;;;;23.50;36.20;;;;;;1529426;76;1144;-61
2021/01/20 05:19:10;;;;;;;;;;;23.50;36.10;;;;;;1522265;76;742;-61
2021/01/20 05:21:15;;;;;;;;;;;23.50;36.10;;;;;;1540741;76;796;-61
2021/01/20 05:23:17;;;;;;;;;;;23.50;36.10;;;;;;1542318;76;753;-61
2021/01/20 05:25:19;;;;;;;;;;;23.50;36.10;;;;;;1539875;76;796;-62
2021/01/20 05:27:21;;;;;;;;;;;23.50;35.90;;;;;;1518630;77;1112;-61
2021/01/20 05:29:23;;;;;;;;;;;23.60;35.90;;;;;;1535205;76;1264;-61
2021/01/20 05:31:26;;;;;;;;;;;23.50;35.90;;;;;;1545654;76;1931;-62
2021/01/20 05:33:29;;;;;;;;;;;23.50;35.90;;;;;;1536140;76;704;-61
2021/01/20 05:35:30;;;;;;;;;;;23.50;35.90;;;;;;1531975;77;777;-61
2021/01/20 05:37:34;;;;;;;;;;;23.60;35.80;;;;;;1532629;76;1206;-61
2021/01/20 05:39:36;;;;;;;;;;;23.50;35.90;;;;;;1534387;77;1157;-60
2021/01/20 05:41:38;;;;;;;;;;;23.50;35.80;;;;;;1527744;76;750;-61
2021/01/20 05:43:40;;;;;;;;;;;23.50;36.00;;;;;;1532987;77;704;-61
2021/01/20 05:45:45;;;;;;;;;;;23.50;36.00;;;;;;1538571;77;735;-62
2021/01/20 05:48:02;;;;;;;;;;;23.50;36.10;;;;;;1537645;76;1148;-62
2021/01/20 05:50:05;;;;;;;;;;;23.50;36.20;;;;;;1528036;77;718;-61
2021/01/20 05:52:13;;;;;;;;;;;23.50;36.20;;;;;;1536211;77;1981;-62
2021/01/20 05:54:15;;;;;;;;;;;23.40;36.10;;;;;;1533671;77;685;-61
2021/01/20 05:56:17;;;;;;;;;;;23.40;36.10;;;;;;1538328;76;759;-61
2021/01/20 05:58:19;;;;;;;;;;;23.50;36.40;;;;;;1518854;77;1198;-61
2021/01/20 06:00:21;;;;;;;;;;;23.40;36.20;;;;;;1540010;76;768;-61
2021/01/20 06:02:23;;;;;;;;;;;23.40;36.10;;;;;;1513386;78;752;-61
2021/01/20 06:04:25;;;;;;;;;;;23.50;36.20;;;;;;1517160;78;800;-60
2021/01/20 06:06:27;;;;;;;;;;;23.50;36.00;;;;;;1514968;77;759;-62
2021/01/20 06:08:32;;;;;;;;;;;23.50;35.90;;;;;;1510270;77;1056;-61
2021/01/20 06:10:34;;;;;;;;;;;23.50;36.00;;;;;;1530739;76;1935;-60
2021/01/20 06:12:36;;;;;;;;;;;23.40;36.30;;;;;;1556430;75;709;-61
2021/01/20 06:14:38;;;;;;;;;;;23.40;36.80;;;;;;1556489;76;724;-59
2021/01/20 06:16:41;;;;;;;;;;;23.30;37.10;;;;;;1533601;76;1135;-61
2021/01/20 06:18:50;;;;;;;;;;;23.20;37.00;;;;;;1526088;76;795;-61
2021/01/20 06:20:52;;;;;;;;;;;23.20;37.20;;;;;;1556514;75;789;-61
2021/01/20 06:22:54;;;;;;;;;;;23.30;37.40;;;;;;1558242;75;746;-62
2021/01/20 06:24:57;;;;;;;;;;;23.20;37.60;;;;;;1550429;76;896;-62
2021/01/20 06:27:03;;;;;;;;;;;23.20;37.50;;;;;;1497770;78;1108;-61
2021/01/20 06:29:06;;;;;;;;;;;23.30;37.60;;;;;;1547882;75;2031;-62
2021/01/20 06:31:08;;;;;;;;;;;23.30;37.80;;;;;;1550621;75;1925;-62
2021/01/20 06:33:11;;;;;;;;;;;23.20;37.90;;;;;;1543722;75;766;-62
2021/01/20 06:35:13;;;;;;;;;;;23.30;37.80;;;;;;1550535;75;1450;-62
2021/01/20 06:37:33;;;;;;;;;;;23.30;37.90;;;;;;1513188;77;1159;-61
2021/01/20 06:39:35;;;;;;;;;;;23.30;38.00;;;;;;1549785;75;715;-62
2021/01/20 06:41:40;;;;;;;;;;;23.30;38.00;;;;;;1549650;77;774;-61
2021/01/20 06:43:45;;;;;;;;;;;23.30;38.00;;;;;;1552583;76;908;-62
2021/01/20 06:45:49;;;;;;;;;;;23.30;37.90;;;;;;1507116;78;819;-60
2021/01/20 06:48:01;;;;;;;;;;;23.30;38.00;;;;;;1509579;77;1371;-62
2021/01/20 06:50:03;;;;;;;;;;;23.20;37.90;;;;;;1505274;77;706;-59
2021/01/20 06:52:12;;;;;;;;;;;23.30;38.00;;;;;;1517849;76;1933;-61
2021/01/20 06:54:14;;;;;;;;;;;23.30;37.90;;;;;;1532700;77;727;-61
2021/01/20 06:56:36;;;;;;;;;;;23.30;37.80;;;;;;1533058;76;719;-61
2021/01/20 06:58:38;;;;;;;;;;;23.30;37.80;;;;;;1530118;77;702;-61
2021/01/20 07:00:40;;;;;;;;;;;23.40;37.70;;;;;;1532209;76;768;-61
2021/01/20 07:02:58;;;;;;;;;;;23.40;37.60;;;;;;1524146;77;702;-61
2021/01/20 07:05:00;;;;;;;;;;;23.50;37.70;;;;;;1529601;76;702;-59
2021/01/20 07:07:02;;;;;;;;;;;23.50;37.60;;;;;;1526252;76;1127;-61
2021/01/20 07:09:05;;;;;;;;;;;23.40;37.50;;;;;;1528723;76;697;-62
2021/01/20 07:11:06;;;;;;;;;;;23.50;37.60;;;;;;1527659;77;1931;-61
2021/01/20 07:13:14;;;;;;;;;;;23.50;37.60;;;;;;1530833;77;772;-61
2021/01/20 07:15:15;;;;;;;;;;;23.50;37.50;;;;;;1517618;77;779;-61
2021/01/20 07:17:17;;;;;;;;;;;23.50;37.70;;;;;;1512280;77;1156;-61
2021/01/20 07:19:19;;;;;;;;;;;23.40;37.60;;;;;;1533761;76;676;-62
2021/01/20 07:21:21;;;;;;;;;;;23.50;37.70;;;;;;1529932;76;735;-62
2021/01/20 07:23:23;;;;;;;;;;;23.50;37.80;;;;;;1532711;76;699;-61
2021/01/20 07:25:26;;;;;;;;;;;23.40;37.80;;;;;;1537187;77;769;-62
2021/01/20 07:27:27;;;;;;;;;;;23.50;37.80;;;;;;1539757;76;1135;-62
2021/01/20 07:29:30;;;;;;;;;;;23.50;37.90;;;;;;1538135;77;755;-61
2021/01/20 07:31:32;;;;;;;;;;;23.40;37.80;;;;;;1538183;77;1898;-60
2021/01/20 07:33:34;;;;;;;;;;;23.40;38.10;;;;;;1532806;76;742;-61
2021/01/20 07:35:36;;;;;;;;;;;23.40;38.20;;;;;;1527003;77;792;-60
2021/01/20 07:37:38;;;;;;;;;;;23.50;38.30;;;;;;1529857;76;1131;-63
2021/01/20 07:39:40;;;;;;;;;;;23.40;38.30;;;;;;1537183;77;691;-62
2021/01/20 07:41:42;;;;;;;;;;;23.50;39.10;;;;;;1538000;77;709;-61
2021/01/20 07:43:44;;;;;;;;;;;23.40;38.90;;;;;;1536627;76;772;-62
2021/01/20 07:45:45;;;;;;;;;;;23.40;38.90;;;;;;1526497;77;711;-61
2021/01/20 07:47:47;;;;;;;;;;;23.40;39.00;;;;;;1537227;76;1186;-62
2021/01/20 07:49:56;;;;;;;;;;;23.50;39.20;;;;;;1534414;77;662;-62
2021/01/20 07:52:01;;;;;;;;;;;23.40;39.00;;;;;;1519479;77;1898;-61
2021/01/20 07:54:04;;;;;;;;;;;23.40;39.00;;;;;;1538186;77;698;-61
2021/01/20 07:56:06;;;;;;;;;;;23.40;39.00;;;;;;1532045;76;712;-62
2021/01/20 07:58:07;;;;;;;;;;;23.40;39.00;;;;;;1540211;76;1141;-62
2021/01/20 08:00:11;;;;;;;;;;;23.40;39.10;;;;;;1528299;76;629;-61
2021/01/20 08:02:13;;;;;;;;;;;23.40;39.00;;;;;;1537602;77;613;-61
2021/01/20 08:04:21;;;;;;;;;;;23.40;39.20;;;;;;1542599;76;725;-61
2021/01/20 08:06:23;;;;;;;;;;;23.40;39.10;;;;;;1550314;76;763;-60
2021/01/20 08:08:25;;;;;;;;;;;23.40;39.10;;;;;;1538684;76;1104;-61
2021/01/20 08:10:27;;;;;;;;;;;23.40;39.20;;;;;;1520989;76;760;-60
2021/01/20 08:12:30;;;;;;;;;;;23.40;39.10;;;;;;1538243;76;1933;-60
2021/01/20 08:14:32;;;;;;;;;;;23.50;39.00;;;;;;1538722;77;727;-61
2021/01/20 08:16:34;;;;;;;;;;;23.40;39.00;;;;;;1538107;76;774;-61
2021/01/20 08:18:36;;;;;;;;;;;23.40;39.10;;;;;;1535534;76;1166;-61
2021/01/20 08:20:38;;;;;;;;;;;23.50;39.20;;;;;;1536232;76;670;-61
2021/01/20 08:22:40;;;;;;;;;;;23.40;39.10;;;;;;1552062;76;706;-59
2021/01/20 08:24:45;;;;;;;;;;;23.40;39.10;;;;;;1537622;77;782;-59
2021/01/20 08:26:48;;;;;;;;;;;23.40;39.10;;;;;;1523472;76;1163;-60
2021/01/20 08:29:04;;;;;;;;;;;23.40;39.20;;;;;;1552231;75;1793;-60
2021/01/20 08:31:17;;;;;;;;;;;23.40;39.10;;;;;;1532363;76;754;-61
2021/01/20 08:33:20;;;;;;;;;;;23.40;39.30;;;;;;1524962;76;1116;-63
2021/01/20 08:35:27;;;;;;;;;;;23.40;39.50;;;;;;1512703;77;776;-62
2021/01/20 08:37:36;;;;;;;;;;;23.40;39.40;;;;;;1547310;76;1769;-63
2021/01/20 08:39:39;;;;;;;;;;;23.40;39.30;;;;;;1551605;76;1694;-62
2021/01/20 08:41:41;;;;;;;;;;;23.40;39.30;;;;;;1556303;75;786;-62
2021/01/20 08:43:43;;;;;;;;;;;23.40;39.30;;;;;;1556434;76;707;-62
2021/01/20 08:45:44;;;;;;;;;;;23.40;39.40;;;;;;1557774;75;717;-61
2021/01/20 08:47:56;;;;;;;;;;;23.40;39.40;;;;;;1512851;78;1189;-60
2021/01/20 08:49:58;;;;;;;;;;;23.40;39.30;;;;;;1556137;76;747;-60
2021/01/20 08:52:00;;;;;;;;;;;23.40;39.30;;;;;;1525920;77;1951;-60
2021/01/20 08:54:11;;;;;;;;;;;23.40;39.20;;;;;;1513165;78;726;-60
2021/01/20 08:56:15;;;;;;;;;;;23.40;39.40;;;;;;1516597;77;753;-61
2021/01/20 08:58:30;;;;;;;;;;;23.40;39.40;;;;;;1540980;76;1566;-60
2021/01/20 09:00:42;;;;;;;;;;;23.40;39.70;;;;;;1544003;77;657;-60
2021/01/20 09:02:43;;;;;;;;;;;23.40;39.50;;;;;;1548630;76;681;-61
2021/01/20 09:04:46;;;;;;;;;;;23.50;39.80;;;;;;1529042;77;847;-60
2021/01/20 09:06:48;;;;;;;;;;;23.50;39.50;;;;;;1507867;77;1126;-61
2021/01/20 09:08:50;;;;;;;;;;;23.50;39.50;;;;;;1551929;75;746;-62
2021/01/20 09:10:52;;;;;;;;;;;23.50;39.70;;;;;;1555023;75;732;-63
2021/01/20 09:12:54;;;;;;;;;;;23.50;39.30;;;;;;1512463;78;1899;-62
2021/01/20 09:14:56;;;;;;;;;;;23.50;39.00;;;;;;1548025;76;705;-63
2021/01/20 09:16:59;;;;;;;;;;;23.60;38.40;;;;;;1547784;75;1365;-63
2021/01/20 09:19:01;;;;;;;;;;;23.80;38.10;;;;;;1547792;75;672;-62
2021/01/20 09:21:03;;;;;;;;;;;23.80;37.80;;;;;;1555814;75;937;-61
2021/01/20 09:23:05;;;;;;;;;;;23.90;37.60;;;;;;1559364;75;734;-60
2021/01/20 09:25:07;;;;;;;;;;;23.90;37.20;;;;;;1548457;76;802;-60
2021/01/20 09:27:09;;;;;;;;;;;23.90;37.10;;;;;;1542819;76;1196;-62
2021/01/20 09:29:11;;;;;;;;;;;23.90;36.90;;;;;;1547037;77;788;-62
2021/01/20 09:31:13;;;;;;;;;;;23.90;36.80;;;;;;1538907;76;860;-64
2021/01/20 09:33:15;;;;;;;;;;;23.90;36.70;;;;;;1535352;77;1944;-64
2021/01/20 09:35:17;;;;;;;;;;;23.90;36.50;;;;;;1536418;77;766;-63
2021/01/20 09:37:19;;;;;;;;;;;23.80;36.40;;;;;;1537794;76;1216;-63
2021/01/20 09:39:20;;;;;;;;;;;23.90;36.40;;;;;;1540825;77;691;-64
2021/01/20 09:41:22;;;;;;;;;;;23.90;36.30;;;;;;1534326;77;745;-63
2021/01/20 09:43:24;;;;;;;;;;;23.90;36.20;;;;;;1532041;77;776;-63
2021/01/20 09:45:27;;;;;;;;;;;23.90;36.10;;;;;;1543046;77;699;-60
2021/01/20 09:47:29;;;;;;;;;;;23.90;36.00;;;;;;1537146;76;1154;-64
2021/01/20 09:49:31;;;;;;;;;;;23.80;35.80;;;;;;1531532;77;722;-63
2021/01/20 09:51:33;;;;;;;;;;;23.80;35.90;;;;;;1539707;77;758;-63
2021/01/20 09:53:34;;;;;;;;;;;23.70;35.80;;;;;;1528607;77;1960;-64
2021/01/20 09:55:36;;;;;;;;;;;23.80;35.90;;;;;;1540708;75;878;-62
2021/01/20 09:57:38;;;;;;;;;;;23.80;35.80;;;;;;1536553;77;1162;-62
2021/01/20 09:59:40;;;;;;;;;;;23.80;35.80;;;;;;1533739;75;672;-63
2021/01/20 10:01:42;;;;;;;;;;;23.80;35.60;;;;;;1531190;77;740;-63
2021/01/20 10:03:44;;;;;;;;;;;23.70;35.70;;;;;;1538251;77;712;-62
2021/01/20 10:05:48;;;;;;;;;;;23.60;35.70;;;;;;1532288;77;770;-61
2021/01/20 10:07:49;;;;;;;;;;;23.70;35.80;;;;;;1538964;75;1970;-63
2021/01/20 10:09:51;;;;;;;;;;;23.70;35.80;;;;;;1537566;77;756;-64
2021/01/20 10:11:53;;;;;;;;;;;23.70;35.70;;;;;;1561899;74;1930;-64
2021/01/20 10:13:55;;;;;;;;;;;23.80;35.60;;;;;;1557358;76;810;-63
2021/01/20 10:15:57;;;;;;;;;;;23.80;35.70;;;;;;1512776;78;769;-63
2021/01/20 10:17:59;;;;;;;;;;;23.80;35.70;;;;;;1518240;77;1155;-63
2021/01/20 10:20:01;;;;;;;;;;;23.80;35.60;;;;;;1515624;77;730;-64
2021/01/20 10:22:03;;;;;;;;;;;23.80;35.50;;;;;;1509016;77;811;-63
2021/01/20 10:24:05;;;;;;;;;;;23.70;35.60;;;;;;1515205;77;722;-63
2021/01/20 10:26:07;;;;;;;;;;;23.80;35.50;;;;;;1507517;77;713;-63
2021/01/20 10:28:09;;;;;;;;;;;23.80;35.60;;;;;;1517650;77;1237;-63
2021/01/20 10:30:11;;;;;;;;;;;23.80;35.50;;;;;;1513686;77;768;-62
2021/01/20 10:32:13;;;;;;;;;;;23.80;35.50;;;;;;1511783;77;1932;-64
2021/01/20 10:34:15;;;;;;;;;;;23.90;35.50;;;;;;1509479;77;716;-64
2021/01/20 10:36:17;;;;;;;;;;;23.80;35.50;;;;;;1516065;77;725;-63
2021/01/20 10:38:20;;;;;;;;;;;23.80;35.40;;;;;;1513531;76;1108;-61
2021/01/20 10:40:22;;;;;;;;;;;23.80;35.50;;;;;;1513863;77;809;-64
2021/01/20 10:42:23;;;;;;;;;;;23.80;35.40;;;;;;1509751;77;772;-63
2021/01/20 10:44:25;;;;;;;;;;;23.80;35.50;;;;;;1512201;77;729;-63
2021/01/20 10:46:27;;;;;;;;;;;23.80;35.40;;;;;;1517871;77;764;-63
2021/01/20 10:48:29;;;;;;;;;;;23.80;35.50;;;;;;1518415;77;1186;-63
2021/01/20 10:50:31;;;;;;;;;;;23.80;35.40;;;;;;1518654;77;721;-62
2021/01/20 10:52:33;;;;;;;;;;;23.70;35.40;;;;;;1544449;75;1924;-60
2021/01/20 10:54:35;;;;;;;;;;;23.80;35.40;;;;;;1544123;75;756;-64
2021/01/20 10:56:37;;;;;;;;;;;23.70;35.40;;;;;;1541095;75;826;-64
2021/01/20 10:58:39;;;;;;;;;;;23.80;35.40;;;;;;1548713;75;827;-64
2021/01/20 11:00:41;;;;;;;;;;;23.70;35.30;;;;;;1530873;76;732;-64
2021/01/20 11:02:42;;;;;;;;;;;23.80;35.30;;;;;;1504748;78;783;-64
2021/01/20 11:04:44;;;;;;;;;;;23.80;35.20;;;;;;1551231;75;694;-64
2021/01/20 11:06:46;;;;;;;;;;;23.70;35.20;;;;;;1558057;75;1199;-63
2021/01/20 11:08:48;;;;;;;;;;;23.70;35.20;;;;;;1512274;77;782;-64
2021/01/20 11:10:50;;;;;;;;;;;23.80;35.30;;;;;;1553731;75;815;-64
2021/01/20 11:12:52;;;;;;;;;;;23.80;35.20;;;;;;1539531;76;1934;-64
2021/01/20 11:14:54;;;;;;;;;;;23.70;35.20;;;;;;1517819;77;745;-63
2021/01/20 11:16:57;;;;;;;;;;;23.70;35.30;;;;;;1528874;75;1154;-62
2021/01/20 11:18:59;;;;;;;;;;;23.70;35.20;;;;;;1534782;75;1559;-64
2021/01/20 11:21:01;;;;;;;;;;;23.80;35.20;;;;;;1534465;75;776;-63
2021/01/20 11:23:03;;;;;;;;;;;23.80;35.20;;;;;;1546548;75;713;-64
2021/01/20 11:25:07;;;;;;;;;;;23.70;35.20;;;;;;1539628;77;738;-64
2021/01/20 11:27:08;;;;;;;;;;;23.80;35.20;;;;;;1537213;75;1139;-64
2021/01/20 11:29:10;;;;;;;;;;;23.70;35.10;;;;;;1543070;75;782;-64
2021/01/20 11:31:12;;;;;;;;;;;23.80;35.20;;;;;;1539645;75;713;-63
2021/01/20 11:33:14;;;;;;;;;;;23.70;35.20;;;;;;1542483;75;1960;-62
2021/01/20 11:35:16;;;;;;;;;;;23.70;35.00;;;;;;1539366;75;710;-61
2021/01/20 11:37:18;;;;;;;;;;;23.80;34.60;;;;;;1540805;75;1154;-61
2021/01/20 11:39:20;;;;;;;;;;;23.70;32.20;;;;;;1528963;75;811;-62
2021/01/20 11:41:21;;;;;;;;;;;23.70;32.50;;;;;;1535457;77;777;-62
2021/01/20 11:43:23;;;;;;;;;;;23.80;33.00;;;;;;1540388;75;765;-62
2021/01/20 11:45:29;;;;;;;;;;;23.70;31.70;;;;;;1539035;75;736;-59
2021/01/20 11:47:30;;;;;;;;;;;23.50;29.20;;;;;;1540264;77;1191;-61
2021/01/20 11:49:32;;;;;;;;;;;23.50;31.00;;;;;;1532208;75;709;-61
2021/01/20 11:51:35;;;;;;;;;;;23.60;31.30;;;;;;1556817;75;820;-61
2021/01/20 11:53:37;;;;;;;;;;;23.60;30.80;;;;;;1541628;75;1895;-62
2021/01/20 11:55:38;;;;;;;;;;;23.50;29.10;;;;;;1531910;75;818;-61
2021/01/20 11:57:40;;;;;;;;;;;23.40;28.90;;;;;;1546660;75;1238;-59
2021/01/20 11:59:42;;;;;;;;;;;23.30;28.60;;;;;;1531747;75;663;-60
2021/01/20 12:01:44;;;;;;;;;;;23.20;28.70;;;;;;1536790;75;644;-60
2021/01/20 12:03:46;;;;;;;;;;;23.10;28.20;;;;;;1539016;75;642;-62
2021/01/20 12:05:50;;;;;;;;;;;23.10;28.10;;;;;;1528626;75;749;-61
2021/01/20 12:07:51;;;;;;;;;;;23.10;27.90;;;;;;1542492;76;1130;-61
2021/01/20 12:09:53;;;;;;;;;;;23.00;28.10;;;;;;1537946;75;703;-62
2021/01/20 12:11:55;;;;;;;;;;;23.00;28.10;;;;;;1538068;75;716;-61
2021/01/20 12:13:57;;;;;;;;;;;23.00;28.00;;;;;;1548112;75;1947;-62